Time;durP1;ratioP1;P1;durP2;ratioP2;P2;SDS_P1;SDS_P2;PMS_P1;PMS_P2;Temp;Humidity;BMP_temperature;BMP_pressure;BME280_temperature;BME280_humidity;BME280_pressure;Samples;Min_cycle;Max_cycle;Signal;HPM_P1;HPM_P2
2023/06/05 00:00:43;;;;;;;;;;;;;;;-140.72;100.00;52478.13;6245285;23;19911;-71
2023/06/05 00:03:08;;;;;;;;;;;;;;;-140.72;100.00;52504.50;6218230;23;19919;-72
2023/06/05 00:05:34;;;;;;;;;;;;;;;-140.72;100.00;52447.69;6245121;23;19915;-71
2023/06/05 00:07:59;;;;;;;;;;;;;;;-140.72;100.00;52494.34;6218241;23;19974;-71
2023/06/05 00:10:34;;;;;;;;;;;;;;;-140.72;100.00;52445.66;6245755;23;19915;-71
2023/06/05 00:13:00;;;;;;;;;;;;;;;-140.72;100.00;52474.06;6219712;23;19947;-71
2023/06/05 00:15:25;;;;;;;;;;;;;;;-140.72;100.00;52486.22;6251902;23;19923;-71
2023/06/05 00:17:50;;;;;;;;;;;;;;;-140.72;100.00;52512.59;6246070;23;19950;-71
2023/06/05 00:20:15;;;;;;;;;;;;;;;-140.72;100.00;52490.28;6245519;23;19912;-71
2023/06/05 00:22:44;;;;;;;;;;;;;;;-140.72;100.00;52512.59;6245384;23;19911;-71
2023/06/05 00:25:09;;;;;;;;;;;;;;;-140.72;100.00;52476.09;6245978;23;19971;-71
2023/06/05 00:27:34;;;;;;;;;;;;;;;-140.72;100.00;52455.78;6246948;23;19912;-71
2023/06/05 00:30:00;;;;;;;;;;;;;;;-140.72;100.00;52482.16;6249975;23;19962;-71
2023/06/05 00:32:25;;;;;;;;;;;;;;;-140.72;100.00;52480.16;6246763;23;19965;-71
2023/06/05 00:34:50;;;;;;;;;;;;;;;-140.72;100.00;52492.31;6219536;23;19942;-71
2023/06/05 00:37:15;;;;;;;;;;;;;;;-140.72;100.00;52512.59;6247077;23;19931;-71
2023/06/05 00:39:41;;;;;;;;;;;;;;;-140.72;100.00;52484.19;6245591;23;19911;-71
2023/06/05 00:42:06;;;;;;;;;;;;;;;-140.72;100.00;52484.19;6245874;22;19911;-71
2023/06/05 00:44:32;;;;;;;;;;;;;;;-140.72;100.00;52494.34;6245913;23;20008;-71
2023/06/05 00:46:57;;;;;;;;;;;;;;;-140.72;100.00;52453.75;6244827;23;19934;-71
2023/06/05 00:49:22;;;;;;;;;;;;;;;-140.72;100.00;52476.09;6245011;23;19943;-71
2023/06/05 00:51:47;;;;;;;;;;;;;;;-140.72;100.00;52498.41;6245073;23;19911;-71
2023/06/05 00:54:15;;;;;;;;;;;;;;;-140.72;100.00;52478.13;6244968;23;19919;-71
2023/06/05 00:56:42;;;;;;;;;;;;;;;-140.72;100.00;52488.25;6245189;23;19938;-71
2023/06/05 00:59:07;;;;;;;;;;;;;;;-140.72;100.00;52508.56;6245171;23;20014;-71
2023/06/05 01:01:34;;;;;;;;;;;;;;;-140.72;100.00;52500.44;6245385;23;19977;-71
2023/06/05 01:03:59;;;;;;;;;;;;;;;-140.72;100.00;52504.50;6245151;23;19946;-71
2023/06/05 01:06:28;;;;;;;;;;;;;;;-140.72;100.00;52524.78;6245082;23;19965;-71
2023/06/05 01:08:54;;;;;;;;;;;;;;;-140.72;100.00;52488.25;6219105;23;19911;-71
2023/06/05 01:11:28;;;;;;;;;;;;;;;-140.72;100.00;52504.50;6245581;23;19965;-71
2023/06/05 01:14:07;;;;;;;;;;;;;;;-140.72;100.00;52480.16;6245929;23;20243;-71
2023/06/05 01:16:34;;;;;;;;;;;;;;;-140.72;100.00;52506.53;6218121;23;19998;-71
2023/06/05 01:19:02;;;;;;;;;;;;;;;-140.72;100.00;52488.25;6245331;23;20040;-71
2023/06/05 01:21:29;;;;;;;;;;;;;;;-140.72;100.00;52498.41;6245099;23;19915;-71
2023/06/05 01:23:54;;;;;;;;;;;;;;;-140.72;100.00;52482.16;6217652;23;19912;-71
2023/06/05 01:26:23;;;;;;;;;;;;;;;-140.72;100.00;52512.59;6244733;23;20374;-71
2023/06/05 01:28:51;;;;;;;;;;;;;;;-140.72;100.00;52494.34;6244168;23;20281;-71
2023/06/05 01:31:19;;;;;;;;;;;;;;;-140.72;100.00;52528.84;6217864;23;20007;-72
2023/06/05 01:33:50;;;;;;;;;;;;;;;-140.72;100.00;52504.50;6244864;23;19991;-71
2023/06/05 01:36:15;;;;;;;;;;;;;;;-140.72;100.00;52496.38;6218055;23;19911;-71
2023/06/05 01:38:42;;;;;;;;;;;;;;;-140.72;100.00;52482.16;6244442;23;19922;-70
2023/06/05 01:41:08;;;;;;;;;;;;;;;-140.72;100.00;52510.59;6244508;22;19912;-71
2023/06/05 01:43:34;;;;;;;;;;;;;;;-140.72;100.00;52571.47;6244608;23;19919;-71
2023/06/05 01:45:59;;;;;;;;;;;;;;;-140.72;100.00;52530.88;6244651;23;19958;-71
2023/06/05 01:48:27;;;;;;;;;;;;;;;-140.72;100.00;52522.75;6217743;23;19962;-71
2023/06/05 01:50:59;;;;;;;;;;;;;;;-140.72;100.00;52504.50;6217698;23;19923;-71
2023/06/05 01:53:25;;;;;;;;;;;;;;;-140.72;100.00;52520.72;6218864;23;19980;-71
2023/06/05 01:55:52;;;;;;;;;;;;;;;-140.72;100.00;52532.91;6249893;23;19915;-71
2023/06/05 01:58:18;;;;;;;;;;;;;;;-140.72;100.00;52510.59;6245185;23;19911;-71
2023/06/05 02:00:45;;;;;;;;;;;;;;;-140.72;100.00;52545.06;6247434;23;19918;-71
2023/06/05 02:03:10;;;;;;;;;;;;;;;-140.72;100.00;52520.72;6250218;23;19958;-71
2023/06/05 02:05:36;;;;;;;;;;;;;;;-140.72;100.00;52492.31;6246828;23;19915;-71
2023/06/05 02:08:09;;;;;;;;;;;;;;;-140.72;100.00;52528.84;6244217;23;19919;-71
2023/06/05 02:10:35;;;;;;;;;;;;;;;-140.72;100.00;52516.66;6245172;23;19917;-71
2023/06/05 02:13:03;;;;;;;;;;;;;;;-140.72;100.00;52506.53;6244923;23;19935;-71
2023/06/05 02:15:31;;;;;;;;;;;;;;;-140.72;100.00;52506.53;6249585;23;19911;-72
2023/06/05 02:17:57;;;;;;;;;;;;;;;-140.72;100.00;52488.25;6248737;23;19915;-71
2023/06/05 02:20:24;;;;;;;;;;;;;;;-140.72;100.00;52528.84;6245446;23;20242;-71
2023/06/05 02:22:51;;;;;;;;;;;;;;;-140.72;100.00;52520.72;6245068;23;19916;-71
2023/06/05 02:25:18;;;;;;;;;;;;;;;-140.72;100.00;52553.19;6244628;23;19912;-71
2023/06/05 02:27:44;;;;;;;;;;;;;;;-140.72;100.00;52541.03;6244739;23;19966;-71
2023/06/05 02:30:09;;;;;;;;;;;;;;;-140.72;100.00;52528.84;6244686;23;19912;-71
2023/06/05 02:33:02;;;;;;;;;;;;;;;-140.72;100.00;52484.19;6244454;23;19911;-71
2023/06/05 02:35:27;;;;;;;;;;;;;;;-140.72;100.00;52528.84;6244384;23;19957;-72
2023/06/05 02:37:52;;;;;;;;;;;;;;;-140.72;100.00;52492.31;6244432;23;19990;-73
2023/06/05 02:40:17;;;;;;;;;;;;;;;-140.72;100.00;52559.28;6244210;22;20251;-72
2023/06/05 02:42:43;;;;;;;;;;;;;;;-140.72;100.00;52541.03;6244206;23;20387;-71
2023/06/05 02:45:08;;;;;;;;;;;;;;;-140.72;100.00;52500.44;6244388;23;19916;-71
2023/06/05 02:47:47;;;;;;;;;;;;;;;-140.72;100.00;52539.00;6243073;23;20289;-72
2023/06/05 02:50:13;;;;;;;;;;;;;;;-140.72;100.00;52553.19;6244254;23;19915;-71
2023/06/05 02:52:39;;;;;;;;;;;;;;;-140.72;100.00;52528.84;6243899;23;19918;-71
2023/06/05 02:55:11;;;;;;;;;;;;;;;-140.72;100.00;52514.63;6244275;23;19946;-71
2023/06/05 02:57:41;;;;;;;;;;;;;;;-140.72;100.00;52561.31;6244126;23;20284;-71
2023/06/05 03:00:07;;;;;;;;;;;;;;;-140.72;100.00;52530.88;6245129;23;19943;-71
2023/06/05 03:02:36;;;;;;;;;;;;;;;-140.72;100.00;52504.50;6244729;23;19915;-71
2023/06/05 03:05:01;;;;;;;;;;;;;;;-140.72;100.00;52508.56;6244735;23;19957;-71
2023/06/05 03:07:26;;;;;;;;;;;;;;;-140.72;100.00;52557.25;6244276;23;20651;-71
2023/06/05 03:09:51;;;;;;;;;;;;;;;-140.72;100.00;52522.75;6244037;23;19916;-71
2023/06/05 03:12:17;;;;;;;;;;;;;;;-140.72;100.00;52512.59;6246860;23;20046;-71
2023/06/05 03:14:42;;;;;;;;;;;;;;;-140.72;100.00;52545.06;6247394;23;19922;-71
2023/06/05 03:17:07;;;;;;;;;;;;;;;-140.72;100.00;52508.56;6247502;23;19915;-71
2023/06/05 03:19:33;;;;;;;;;;;;;;;-140.72;100.00;52532.91;6246911;23;19990;-71
2023/06/05 03:21:58;;;;;;;;;;;;;;;-140.72;100.00;52545.06;6246219;23;20296;-71
2023/06/05 03:24:24;;;;;;;;;;;;;;;-140.72;100.00;52539.00;6246247;23;19911;-72
2023/06/05 03:26:50;;;;;;;;;;;;;;;-140.72;100.00;52553.19;6218931;23;19942;-71
2023/06/05 03:29:15;;;;;;;;;;;;;;;-140.72;100.00;52536.97;6245994;23;19911;-73
2023/06/05 03:31:42;;;;;;;;;;;;;;;-140.72;100.00;52520.72;6245842;23;19912;-72
2023/06/05 03:34:07;;;;;;;;;;;;;;;-140.72;100.00;52571.47;6249097;23;19982;-71
2023/06/05 03:36:37;;;;;;;;;;;;;;;-140.72;100.00;52534.94;6252781;23;19985;-71
2023/06/05 03:39:03;;;;;;;;;;;;;;;-140.72;100.00;52506.53;6246938;23;19970;-71
2023/06/05 03:41:28;;;;;;;;;;;;;;;-140.72;100.00;52528.84;6218832;23;20297;-71
2023/06/05 03:43:53;;;;;;;;;;;;;;;-140.72;100.00;52543.03;6245803;23;19971;-71
2023/06/05 03:46:19;;;;;;;;;;;;;;;-140.72;100.00;52551.16;6245223;23;19911;-71
2023/06/05 03:48:55;;;;;;;;;;;;;;;-140.72;100.00;52541.03;6245730;23;20247;-71
2023/06/05 03:51:20;;;;;;;;;;;;;;;-140.72;100.00;52549.13;6246078;23;19918;-71
2023/06/05 03:53:45;;;;;;;;;;;;;;;-140.72;100.00;52530.88;6245927;23;19998;-71
2023/06/05 03:56:15;;;;;;;;;;;;;;;-140.72;100.00;52512.59;6245838;23;19912;-71
2023/06/05 03:58:41;;;;;;;;;;;;;;;-140.72;100.00;52539.00;6246357;23;19962;-71
2023/06/05 04:01:06;;;;;;;;;;;;;;;-140.72;100.00;52504.50;6246081;23;19924;-71
2023/06/05 04:03:31;;;;;;;;;;;;;;;-140.72;100.00;52484.19;6252336;23;20365;-71
2023/06/05 04:05:57;;;;;;;;;;;;;;;-140.72;100.00;52534.94;6248079;23;19915;-71
2023/06/05 04:08:22;;;;;;;;;;;;;;;-140.72;100.00;52528.84;6245828;23;19939;-71
2023/06/05 04:10:48;;;;;;;;;;;;;;;-140.72;100.00;52543.03;6219181;23;19982;-71
2023/06/05 04:13:13;;;;;;;;;;;;;;;-140.72;100.00;52557.25;6245577;23;19916;-71
2023/06/05 04:15:38;;;;;;;;;;;;;;;-140.72;100.00;52504.50;6245411;23;19963;-71
2023/06/05 04:18:04;;;;;;;;;;;;;;;-140.72;100.00;52536.97;6245460;23;20033;-71
2023/06/05 04:20:29;;;;;;;;;;;;;;;-140.72;100.00;52545.06;6245234;23;19911;-71
2023/06/05 04:22:54;;;;;;;;;;;;;;;-140.72;100.00;52545.06;6245403;23;19912;-71
2023/06/05 04:25:19;;;;;;;;;;;;;;;-140.72;100.00;52545.06;6245108;23;19911;-71
2023/06/05 04:27:45;;;;;;;;;;;;;;;-140.72;100.00;52516.66;6245214;23;19974;-71
2023/06/05 04:30:12;;;;;;;;;;;;;;;-140.72;100.00;52526.81;6245472;23;19919;-73
2023/06/05 04:32:38;;;;;;;;;;;;;;;-140.72;100.00;52518.69;6218344;23;19911;-73
2023/06/05 04:35:03;;;;;;;;;;;;;;;-140.72;100.00;52504.50;6244862;23;20173;-73
2023/06/05 04:37:29;;;;;;;;;;;;;;;-140.72;100.00;52541.03;6245571;23;19918;-73
2023/06/05 04:39:54;;;;;;;;;;;;;;;-140.72;100.00;52518.69;6245432;23;19950;-73
2023/06/05 04:42:20;;;;;;;;;;;;;;;-140.72;100.00;52536.97;6218510;23;20008;-73
2023/06/05 04:44:53;;;;;;;;;;;;;;;-140.72;100.00;52551.16;6245125;23;20263;-73
2023/06/05 04:47:18;;;;;;;;;;;;;;;-140.72;100.00;52528.84;6218333;23;20250;-74
2023/06/05 04:49:43;;;;;;;;;;;;;;;-140.72;100.00;52516.66;6245445;23;19958;-75
2023/06/05 04:52:08;;;;;;;;;;;;;;;-140.72;100.00;52520.72;6217906;23;19915;-74
2023/06/05 04:54:34;;;;;;;;;;;;;;;-140.72;100.00;52500.44;6245283;23;19919;-73
2023/06/05 04:57:01;;;;;;;;;;;;;;;-140.72;100.00;52524.78;6245711;23;19916;-75
2023/06/05 04:59:26;;;;;;;;;;;;;;;-140.72;100.00;52545.06;6246674;23;19916;-74
2023/06/05 05:01:51;;;;;;;;;;;;;;;-140.72;100.00;52516.66;6246030;23;20369;-73
2023/06/05 05:04:17;;;;;;;;;;;;;;;-140.72;100.00;52494.34;6245569;23;19911;-73
2023/06/05 05:06:47;;;;;;;;;;;;;;;-140.72;100.00;52553.19;6245343;23;19990;-74
2023/06/05 05:09:13;;;;;;;;;;;;;;;-140.72;100.00;52524.78;6218005;23;20196;-75
2023/06/05 05:14:55;;;;;;;;;;;;;;;-140.72;100.00;52559.28;6252587;23;20033;-73
2023/06/05 05:17:20;;;;;;;;;;;;;;;-140.72;100.00;52549.13;6225910;23;19921;-73
2023/06/05 05:19:46;;;;;;;;;;;;;;;-140.72;100.00;52528.84;6245594;23;19912;-73
2023/06/05 05:22:11;;;;;;;;;;;;;;;-140.72;100.00;52518.69;6218719;23;19938;-74
2023/06/05 05:24:36;;;;;;;;;;;;;;;-140.72;100.00;52520.72;6246823;23;19916;-74
2023/06/05 05:27:02;;;;;;;;;;;;;;;-140.72;100.00;52528.84;6247979;23;20021;-73
2023/06/05 05:29:27;;;;;;;;;;;;;;;-140.72;100.00;52500.44;6250019;23;19911;-74
2023/06/05 05:31:52;;;;;;;;;;;;;;;-140.72;100.00;52484.19;6218400;23;19979;-73
2023/06/05 05:34:18;;;;;;;;;;;;;;;-140.72;100.00;52536.97;6244446;23;19912;-73
2023/06/05 05:36:43;;;;;;;;;;;;;;;-140.72;100.00;52516.66;6244618;23;19970;-73
2023/06/05 05:39:08;;;;;;;;;;;;;;;-140.72;100.00;52512.59;6244935;23;19919;-74
2023/06/05 05:41:49;;;;;;;;;;;;;;;-140.72;100.00;52492.31;6217866;23;19912;-72
2023/06/05 05:44:15;;;;;;;;;;;;;;;-140.72;100.00;52504.50;6244632;23;20290;-75
2023/06/05 05:46:40;;;;;;;;;;;;;;;-140.72;100.00;52484.19;6244655;23;19946;-76
2023/06/05 05:49:08;;;;;;;;;;;;;;;-140.72;100.00;52520.72;6247560;23;19951;-73
2023/06/05 05:51:33;;;;;;;;;;;;;;;-140.72;100.00;52532.91;6247247;23;19983;-73
2023/06/05 05:54:00;;;;;;;;;;;;;;;-140.72;100.00;52504.50;6245612;23;19939;-74
2023/06/05 05:56:25;;;;;;;;;;;;;;;-140.72;100.00;52488.25;6241709;23;19935;-74
2023/06/05 05:58:50;;;;;;;;;;;;;;;-140.72;100.00;52506.53;6218574;23;20268;-73
2023/06/05 06:01:35;;;;;;;;;;;;;;;-140.72;100.00;52484.19;6244386;23;20322;-73
2023/06/05 06:04:00;;;;;;;;;;;;;;;-140.72;100.00;52488.25;6244437;23;19989;-73
2023/06/05 06:06:37;;;;;;;;;;;;;;;-140.72;100.00;52484.19;6244584;23;19911;-73
2023/06/05 06:09:04;;;;;;;;;;;;;;;-140.72;100.00;52490.28;6245026;23;19919;-73
2023/06/05 06:11:41;;;;;;;;;;;;;;;-140.72;100.00;52443.63;6244901;23;20288;-71
2023/06/05 06:14:09;;;;;;;;;;;;;;;-140.72;100.00;52459.84;6244720;23;19937;-72
2023/06/05 06:16:35;;;;;;;;;;;;;;;-140.72;100.00;52467.97;6244398;23;20222;-72
2023/06/05 06:19:01;;;;;;;;;;;;;;;-140.72;100.00;52470.00;6218005;23;19916;-71
2023/06/05 06:21:26;;;;;;;;;;;;;;;-140.72;100.00;52476.09;6217321;23;20011;-70
2023/06/05 06:23:51;;;;;;;;;;;;;;;-140.72;100.00;52457.81;6244386;23;19916;-71
2023/06/05 06:26:17;;;;;;;;;;;;;;;-140.72;100.00;52482.16;6244084;23;19943;-70
2023/06/05 06:28:42;;;;;;;;;;;;;;;-140.72;100.00;52433.47;6244422;23;19988;-70
2023/06/05 06:31:08;;;;;;;;;;;;;;;-140.72;100.00;52496.38;6244134;23;19911;-70
2023/06/05 06:33:36;;;;;;;;;;;;;;;-140.72;100.00;52465.94;6244447;23;20356;-71
2023/06/05 06:36:02;;;;;;;;;;;;;;;-140.72;100.00;52496.38;6244177;23;19915;-71
2023/06/05 06:38:30;;;;;;;;;;;;;;;-140.72;100.00;52461.88;6244117;23;20324;-71
2023/06/05 06:40:58;;;;;;;;;;;;;;;-140.72;100.00;52455.78;6244073;22;19911;-72
2023/06/05 06:43:24;;;;;;;;;;;;;;;-140.72;100.00;52474.06;6244721;23;19977;-72
2023/06/05 06:45:50;;;;;;;;;;;;;;;-140.72;100.00;52435.50;6243392;23;19915;-72
2023/06/05 06:48:16;;;;;;;;;;;;;;;-140.72;100.00;52500.44;6244816;23;19995;-71
2023/06/05 06:50:42;;;;;;;;;;;;;;;-140.72;100.00;52484.19;6245556;23;19919;-71
2023/06/05 06:53:07;;;;;;;;;;;;;;;-140.72;100.00;52457.81;6219129;23;19912;-74
2023/06/05 06:55:33;;;;;;;;;;;;;;;-140.72;100.00;52449.72;6222246;23;19990;-74
2023/06/05 06:57:58;;;;;;;;;;;;;;;-140.72;100.00;52445.66;6218595;23;20355;-74
2023/06/05 07:00:23;;;;;;;;;;;;;;;-140.72;100.00;52463.91;6244070;23;20307;-74
2023/06/05 07:02:48;;;;;;;;;;;;;;;-140.72;100.00;52465.94;6217505;23;20283;-74
2023/06/05 07:05:14;;;;;;;;;;;;;;;-140.72;100.00;52437.53;6244734;23;19943;-74
2023/06/05 07:07:39;;;;;;;;;;;;;;;-140.72;100.00;52447.69;6217337;23;19919;-74
2023/06/05 07:10:05;;;;;;;;;;;;;;;-140.72;100.00;52449.72;6244467;23;19912;-74
2023/06/05 07:12:30;;;;;;;;;;;;;;;-140.72;100.00;52439.56;6244290;23;19918;-74
2023/06/05 07:14:56;;;;;;;;;;;;;;;-140.72;100.00;52447.69;6217412;23;19966;-74
2023/06/05 07:17:21;;;;;;;;;;;;;;;-140.72;100.00;52445.66;6243618;23;19915;-74
2023/06/05 07:19:46;;;;;;;;;;;;;;;-140.72;100.00;52445.66;6243782;23;20243;-74
2023/06/05 07:22:12;;;;;;;;;;;;;;;-140.72;100.00;52431.44;6216709;23;19919;-74
2023/06/05 07:24:38;;;;;;;;;;;;;;;-140.72;100.00;52439.56;6244162;23;20334;-74
2023/06/05 07:27:04;;;;;;;;;;;;;;;-140.72;100.00;52386.81;6216867;23;19954;-74
2023/06/05 07:29:30;;;;;;;;;;;;;;;-140.72;100.00;52439.56;6244348;23;19912;-74
2023/06/05 07:31:55;;;;;;;;;;;;;;;-140.72;100.00;52413.19;6244647;23;19912;-74
2023/06/05 07:34:22;;;;;;;;;;;;;;;-140.72;100.00;52390.84;6244369;23;20217;-74
2023/06/05 07:36:48;;;;;;;;;;;;;;;-140.72;100.00;52411.16;6245052;23;19915;-74
2023/06/05 07:39:14;;;;;;;;;;;;;;;-140.72;100.00;52401.00;6217519;23;19970;-74
2023/06/05 07:41:42;;;;;;;;;;;;;;;-140.72;100.00;52350.28;6245302;22;19919;-74
2023/06/05 07:44:11;;;;;;;;;;;;;;;-140.72;100.00;52378.69;6217499;23;19915;-74
2023/06/05 07:46:39;;;;;;;;;;;;;;;-140.72;100.00;52358.41;6244985;23;19915;-74
2023/06/05 07:49:04;;;;;;;;;;;;;;;-140.72;99.52;52413.19;6244461;23;20009;-74
2023/06/05 07:51:33;;;;;;;;;;;;;;;-140.72;62.77;52360.44;6244826;23;19916;-74
2023/06/05 07:53:58;;;;;;;;;;;;;;;-140.72;28.34;52360.44;6244891;23;19911;-74
2023/06/05 07:56:23;;;;;;;;;;;;;;;-140.72;7.96;52362.44;6245296;23;19911;-74
2023/06/05 07:58:49;;;;;;;;;;;;;;;-140.72;0.00;52338.09;6246226;23;20224;-75
2023/06/05 08:01:15;;;;;;;;;;;;;;;-140.72;0.00;52362.44;6246180;23;19919;-74
2023/06/05 08:03:41;;;;;;;;;;;;;;;-140.72;0.00;52342.16;6246930;23;19935;-73
2023/06/05 08:06:06;;;;;;;;;;;;;;;-140.72;0.00;52376.66;6246622;23;19919;-74
2023/06/05 08:08:32;;;;;;;;;;;;;;;-140.72;0.00;52307.66;6246298;23;19915;-74
2023/06/05 08:10:57;;;;;;;;;;;;;;;-140.72;0.00;52309.69;6246318;23;19991;-74
2023/06/05 08:13:22;;;;;;;;;;;;;;;-140.72;0.00;52350.28;6219579;23;20316;-74
2023/06/05 08:15:47;;;;;;;;;;;;;;;-140.72;0.00;52342.16;6246461;23;19919;-74
2023/06/05 08:18:14;;;;;;;;;;;;;;;-140.72;0.00;52346.22;6246504;23;19935;-74
2023/06/05 08:20:40;;;;;;;;;;;;;;;-140.72;0.00;52313.75;6246447;23;19994;-74
2023/06/05 08:23:06;;;;;;;;;;;;;;;-140.72;0.00;52330.00;6246096;23;19935;-74
2023/06/05 08:25:31;;;;;;;;;;;;;;;-140.72;0.00;52267.09;6247205;23;19942;-74
2023/06/05 08:27:56;;;;;;;;;;;;;;;-140.72;0.00;52321.88;6219286;23;19912;-74
2023/06/05 08:30:22;;;;;;;;;;;;;;;-140.72;0.00;52305.63;6246544;23;20272;-74
2023/06/05 08:32:47;;;;;;;;;;;;;;;-140.72;0.00;52321.88;6246034;23;19912;-74
2023/06/05 08:35:12;;;;;;;;;;;;;;;-140.72;0.00;52313.75;6224366;23;19916;-74
2023/06/05 08:37:37;;;;;;;;;;;;;;;-140.72;0.00;52305.63;6219321;23;19962;-74
2023/06/05 08:40:06;;;;;;;;;;;;;;;-140.72;0.00;52330.00;6218905;23;19965;-74
2023/06/05 08:42:31;;;;;;;;;;;;;;;-140.72;0.00;52305.63;6246170;22;19911;-74
2023/06/05 08:44:56;;;;;;;;;;;;;;;-140.72;0.00;52319.84;6246190;23;19987;-74
2023/06/05 08:47:22;;;;;;;;;;;;;;;-140.72;0.00;52295.50;6245826;23;19915;-74
2023/06/05 08:49:50;;;;;;;;;;;;;;;-140.72;0.00;52267.09;6246229;23;19986;-74
2023/06/05 08:52:17;;;;;;;;;;;;;;;-140.72;0.00;52305.63;6245718;23;20244;-74
2023/06/05 08:54:43;;;;;;;;;;;;;;;-140.72;0.00;52265.06;6245599;23;19923;-74
2023/06/05 08:57:09;;;;;;;;;;;;;;;-140.72;0.00;52265.06;6245488;23;19911;-74
2023/06/05 08:59:34;;;;;;;;;;;;;;;-140.72;0.00;52283.31;6245383;23;19919;-74
2023/06/05 09:02:00;;;;;;;;;;;;;;;-140.72;0.00;52236.66;6245501;23;19943;-74
2023/06/05 09:04:30;;;;;;;;;;;;;;;-140.72;0.00;52263.03;6245747;23;19989;-74
2023/06/05 09:07:01;;;;;;;;;;;;;;;-140.72;0.00;52250.84;6246606;23;19922;-72
2023/06/05 09:09:27;;;;;;;;;;;;;;;-140.72;0.00;52224.47;6245571;23;19911;-73
2023/06/05 09:12:13;;;;;;;;;;;;;;;-140.72;0.00;52222.44;6217986;23;19922;-72
2023/06/05 09:14:38;;;;;;;;;;;;;;;-140.72;0.00;52244.78;6218996;23;19912;-73
2023/06/05 09:17:03;;;;;;;;;;;;;;;-140.72;0.00;52173.75;6217858;23;19915;-73
2023/06/05 09:19:35;;;;;;;;;;;;;;;-140.72;0.00;52185.94;6245693;23;20332;-73
2023/06/05 09:22:01;;;;;;;;;;;;;;;-140.72;0.00;52196.06;6247461;23;19946;-72
2023/06/05 09:24:29;;;;;;;;;;;;;;;-140.72;0.00;52155.50;6248358;23;20336;-72
2023/06/05 09:26:56;;;;;;;;;;;;;;;-140.72;0.00;52192.00;6219982;23;19911;-73
2023/06/05 09:29:25;;;;;;;;;;;;;;;-140.72;0.00;52153.47;6245930;23;19912;-73
2023/06/05 09:31:52;;;;;;;;;;;;;;;-140.72;0.00;52185.94;6245606;23;20197;-73
2023/06/05 09:34:23;;;;;;;;;;;;;;;-140.72;0.00;52183.91;6245746;23;19919;-73
2023/06/05 09:36:48;;;;;;;;;;;;;;;-140.72;0.00;52163.59;6245872;23;20223;-72
2023/06/05 09:39:17;;;;;;;;;;;;;;;-140.72;0.00;52131.16;6245714;23;19939;-71
2023/06/05 09:41:44;;;;;;;;;;;;;;;-140.72;0.00;52151.44;6245220;22;19993;-71
2023/06/05 09:44:09;;;;;;;;;;;;;;;-140.72;0.00;52137.22;6245425;23;20292;-71
2023/06/05 09:46:34;;;;;;;;;;;;;;;-140.72;0.00;52096.66;6245658;23;19963;-71
2023/06/05 09:49:00;;;;;;;;;;;;;;;-140.72;0.00;52098.69;6245385;23;20227;-70
2023/06/05 09:51:25;;;;;;;;;;;;;;;-140.72;0.00;52104.75;6244901;23;19919;-71
2023/06/05 09:53:50;;;;;;;;;;;;;;;-140.72;0.00;52110.84;6245225;23;19919;-70
2023/06/05 09:56:17;;;;;;;;;;;;;;;-140.72;0.00;52084.47;6244803;23;20238;-71
2023/06/05 09:58:44;;;;;;;;;;;;;;;-140.72;0.00;52033.75;6245149;23;19916;-71
2023/06/05 10:01:10;;;;;;;;;;;;;;;-140.72;0.00;52062.16;6245492;23;19947;-71
2023/06/05 10:03:36;;;;;;;;;;;;;;;-140.72;0.00;52013.47;6247560;23;19922;-71
2023/06/05 10:06:03;;;;;;;;;;;;;;;-140.72;0.00;52011.44;6247741;23;19919;-71
2023/06/05 10:08:28;;;;;;;;;;;;;;;-140.72;0.00;52021.56;6250714;23;19919;-71
2023/06/05 10:10:55;;;;;;;;;;;;;;;-140.72;0.00;52072.31;6221233;23;19911;-71
2023/06/05 10:13:20;;;;;;;;;;;;;;;-140.72;0.00;52031.72;6247216;23;19912;-71
2023/06/05 10:15:46;;;;;;;;;;;;;;;-140.72;0.00;52064.19;6219474;23;19962;-71
2023/06/05 10:18:11;;;;;;;;;;;;;;;-140.72;0.00;52021.56;6245347;23;19939;-71
2023/06/05 10:20:37;;;;;;;;;;;;;;;-140.72;0.00;51997.22;6244973;23;19935;-71
2023/06/05 10:23:04;;;;;;;;;;;;;;;-140.72;0.00;51993.19;6244848;23;19922;-71
2023/06/05 10:25:30;;;;;;;;;;;;;;;-140.72;0.00;51987.09;6244782;23;19990;-71
2023/06/05 10:28:07;;;;;;;;;;;;;;;-140.72;0.00;52001.28;6244573;23;20369;-71
2023/06/05 10:30:35;;;;;;;;;;;;;;;-140.72;0.00;52017.53;6244276;23;19915;-71
2023/06/05 10:33:19;;;;;;;;;;;;;;;-140.72;0.00;51948.53;6244750;23;19919;-71
2023/06/05 10:35:47;;;;;;;;;;;;;;;-140.72;0.00;51936.38;6245473;23;20346;-72
2023/06/05 10:38:17;;;;;;;;;;;;;;;-140.72;0.00;51905.94;6245057;23;19938;-71
2023/06/05 10:40:47;;;;;;;;;;;;;;;-140.72;0.00;51912.03;6245011;22;20013;-72
2023/06/05 10:43:31;;;;;;;;;;;;;;;-140.72;0.00;51905.94;6244694;23;19915;-72
2023/06/05 10:45:57;;;;;;;;;;;;;;;-140.72;0.00;51910.00;6244603;23;19916;-72
2023/06/05 10:48:41;;;;;;;;;;;;;;;-140.72;0.00;51883.63;6244886;23;19934;-72
2023/06/05 10:51:45;;;;;;;;;;;;;;;-140.72;0.00;51875.50;6244327;23;19941;-71
2023/06/05 10:54:17;;;;;;;;;;;;;;;-140.72;0.00;51879.56;6093246;23;19920;-71
2023/06/05 10:59:17;;;;;;;;;;;;;;;-140.72;0.00;51871.44;6178343;23;19922;-71
2023/06/05 11:01:42;;;;;;;;;;;;;;;-140.72;0.00;51855.22;6245548;23;20320;-71
2023/06/05 11:04:08;;;;;;;;;;;;;;;-140.72;0.00;51826.81;6244888;23;19911;-71
2023/06/05 11:06:33;;;;;;;;;;;;;;;-140.72;0.00;51826.81;6244639;23;19934;-71
2023/06/05 11:09:12;;;;;;;;;;;;;;;-140.72;0.00;51867.38;6245479;23;19918;-71
2023/06/05 11:11:57;;;;;;;;;;;;;;;-140.72;0.00;51838.97;6247208;23;19919;-71
2023/06/05 11:14:22;;;;;;;;;;;;;;;-140.72;0.00;51792.31;6218626;23;19922;-71
2023/06/05 11:16:47;;;;;;;;;;;;;;;-140.72;0.00;51838.97;6244972;23;19915;-71
2023/06/05 11:19:20;;;;;;;;;;;;;;;-140.72;0.00;51798.41;6245394;23;19918;-71
2023/06/05 11:22:04;;;;;;;;;;;;;;;-140.72;0.00;51761.88;6244836;23;19911;-72
2023/06/05 11:24:29;;;;;;;;;;;;;;;-140.72;0.00;51828.84;6244674;23;19994;-71
2023/06/05 11:26:54;;;;;;;;;;;;;;;-140.72;0.00;51786.22;6217620;23;19954;-72
2023/06/05 11:29:20;;;;;;;;;;;;;;;-140.72;0.00;51786.22;6244730;23;19912;-72
2023/06/05 11:31:45;;;;;;;;;;;;;;;-140.72;0.00;51772.03;6245026;23;20085;-71
2023/06/05 11:34:12;;;;;;;;;;;;;;;-140.72;0.00;51774.06;6219723;23;19949;-72
2023/06/05 11:36:38;;;;;;;;;;;;;;;-140.72;0.00;51737.53;6246903;23;19912;-71
2023/06/05 11:39:03;;;;;;;;;;;;;;;-140.72;0.00;51735.50;6219864;23;19920;-71
2023/06/05 11:41:29;;;;;;;;;;;;;;;-140.72;0.00;51755.81;6219629;23;19961;-71
2023/06/05 11:43:54;;;;;;;;;;;;;;;-140.72;0.00;51729.44;6220651;23;19916;-71
2023/06/05 11:46:19;;;;;;;;;;;;;;;-140.72;0.00;51731.44;6246535;23;19912;-72
2023/06/05 11:48:45;;;;;;;;;;;;;;;-140.72;0.00;51699.00;6246381;23;20208;-71
2023/06/05 11:51:10;;;;;;;;;;;;;;;-140.72;0.00;51725.38;6246426;23;19912;-72
2023/06/05 11:53:43;;;;;;;;;;;;;;;-140.72;0.00;51692.91;6247504;23;19922;-71
2023/06/05 11:56:16;;;;;;;;;;;;;;;-140.72;0.00;51656.38;6247486;23;19942;-71
2023/06/05 11:58:42;;;;;;;;;;;;;;;-140.72;0.00;51684.78;6246280;23;19916;-71
2023/06/05 12:01:17;;;;;;;;;;;;;;;-140.72;0.00;51696.97;6245993;23;19954;-72
2023/06/05 12:03:43;;;;;;;;;;;;;;;-140.72;0.00;51709.13;6246358;23;19923;-71
2023/06/05 12:06:09;;;;;;;;;;;;;;;-140.72;0.00;51654.34;6219336;23;19919;-72
2023/06/05 12:08:35;;;;;;;;;;;;;;;-140.72;0.00;51690.88;6219236;23;19911;-72
2023/06/05 12:11:00;;;;;;;;;;;;;;;-140.72;0.00;51725.38;6246692;23;19912;-71
2023/06/05 12:13:45;;;;;;;;;;;;;;;-140.72;0.00;51690.88;6246158;23;19943;-72
2023/06/05 12:16:10;;;;;;;;;;;;;;;-140.72;0.00;51617.84;6245783;23;19977;-72
2023/06/05 12:18:35;;;;;;;;;;;;;;;-140.72;0.00;51654.34;6218621;23;19915;-72
2023/06/05 12:21:01;;;;;;;;;;;;;;;-140.72;0.00;51654.34;6246097;23;19962;-72
2023/06/05 12:23:28;;;;;;;;;;;;;;;-140.72;0.00;51628.00;6245890;23;20243;-72
2023/06/05 12:26:01;;;;;;;;;;;;;;;-140.72;0.00;51632.03;6246439;23;19931;-71
2023/06/05 12:28:27;;;;;;;;;;;;;;;-140.72;0.00;51660.44;6246587;23;20006;-72